Mammoth, West Virginia
Current Conditions -  °F | °C
As of 4:54 AM on Thursday 29 Jan 2015 (Local Time) from KCRW Reporting Station
Clear Clear  
Wind Chill: 22°   Ceiling: Unl
Heat Index: 22°   Visibility: 10mi
Dew Point: 19°   Wind: 0mph
Humidity: 89%   Direction: NA
Pressure: 30.11"   Gusts: NA
Location:  38.26°N, 81.37°W
Report Text: KCRW 290954Z 00000KT 10SM CLR M06/M07 A3011 RMK AO2 SLP206 T10561072
Loading
Personal Weather Stations






























Interactive Weather Map New forecast layout! Learn more

10-Day Weather Forecast

Advertisements
Track Severe Weather on mobile